createdAt,value
2022-11-24T00:00:33.651Z,44.09
2022-11-24T00:03:00.854Z,43.93
2022-11-24T00:05:27.864Z,43.39
2022-11-24T00:07:54.936Z,44.11
2022-11-24T00:10:21.853Z,43.84
2022-11-24T00:12:48.709Z,43.68
2022-11-24T00:15:15.646Z,43.63
2022-11-24T00:17:42.466Z,43.83
2022-11-24T00:20:09.930Z,43.58
2022-11-24T00:22:36.724Z,43.58
2022-11-24T00:25:03.781Z,43.75
2022-11-24T00:27:30.613Z,43.39
2022-11-24T00:29:59.790Z,43.60
2022-11-24T00:32:29.883Z,43.42
2022-11-24T00:34:56.792Z,43.84
2022-11-24T00:37:23.607Z,43.67
2022-11-24T00:39:50.423Z,43.81
2022-11-24T00:42:17.414Z,43.32
2022-11-24T00:44:44.252Z,43.67
2022-11-24T00:47:11.146Z,43.48
2022-11-24T00:49:38.012Z,43.63
2022-11-24T00:52:05.020Z,43.80
2022-11-24T00:54:31.972Z,44.03
2022-11-24T00:56:59.006Z,44.05
2022-11-24T00:59:25.790Z,44.11
2022-11-24T01:01:52.645Z,43.92
2022-11-24T01:04:19.532Z,44.17
2022-11-24T01:06:46.353Z,44.33
2022-11-24T01:09:13.170Z,43.92
2022-11-24T01:11:43.157Z,44.21
2022-11-24T01:14:09.998Z,44.98
2022-11-24T01:16:39.084Z,43.70
2022-11-24T01:19:05.893Z,44.29
2022-11-24T01:21:32.688Z,43.88
2022-11-24T01:23:59.487Z,44.35
2022-11-24T01:26:26.804Z,44.11
2022-11-24T01:28:55.427Z,44.18
2022-11-24T01:31:22.468Z,44.65
2022-11-24T01:33:49.331Z,44.42
2022-11-24T01:36:16.188Z,44.77
2022-11-24T01:38:43.015Z,44.87
2022-11-24T01:41:12.253Z,44.84
2022-11-24T01:43:39.360Z,45.03
2022-11-24T01:46:15.959Z,44.88
2022-11-24T01:48:45.812Z,44.78
2022-11-24T01:51:15.044Z,45.24
2022-11-24T01:53:44.792Z,45.00
2022-11-24T01:56:13.193Z,45.38
2022-11-24T01:58:40.949Z,45.21
2022-11-24T02:01:08.814Z,45.06
2022-11-24T02:03:37.237Z,45.13
2022-11-24T02:06:07.905Z,45.12
2022-11-24T02:08:40.081Z,45.21
2022-11-24T02:11:07.068Z,45.22
2022-11-24T02:13:35.815Z,44.98
2022-11-24T02:16:03.444Z,44.80
2022-11-24T02:18:30.642Z,44.88
2022-11-24T02:20:57.629Z,44.80
2022-11-24T02:23:28.614Z,44.59
2022-11-24T02:25:55.749Z,44.90
2022-11-24T02:28:24.214Z,44.97
2022-11-24T02:30:51.569Z,44.98
2022-11-24T02:33:19.023Z,44.76
2022-11-24T02:35:45.847Z,44.57
2022-11-24T02:38:13.835Z,45.01
2022-11-24T02:40:43.307Z,45.21
2022-11-24T02:43:12.792Z,44.96
2022-11-24T02:45:39.710Z,45.15
2022-11-24T02:48:06.795Z,44.89
2022-11-24T02:50:33.739Z,45.05
2022-11-24T02:53:01.007Z,45.16
2022-11-24T02:55:27.851Z,45.10
2022-11-24T02:57:54.664Z,45.08
2022-11-24T03:00:22.207Z,45.25
2022-11-24T03:02:49.074Z,45.29
2022-11-24T03:05:16.056Z,45.59
2022-11-24T03:07:44.129Z,45.27
2022-11-24T03:10:11.161Z,45.35
2022-11-24T03:12:38.086Z,45.29
2022-11-24T03:15:06.266Z,45.32
2022-11-24T03:17:33.154Z,45.60
2022-11-24T03:20:04.857Z,45.53
2022-11-24T03:22:32.278Z,45.50
2022-11-24T03:24:59.530Z,45.47
2022-11-24T03:27:26.471Z,45.56
2022-11-24T03:29:53.368Z,45.69
2022-11-24T03:32:20.167Z,45.60
2022-11-24T03:34:47.525Z,45.75
2022-11-24T03:37:14.363Z,45.68
2022-11-24T03:39:41.162Z,46.10
2022-11-24T03:42:08.028Z,46.03
2022-11-24T03:44:35.145Z,45.83
2022-11-24T03:47:02.244Z,45.87
2022-11-24T03:49:29.121Z,46.10
2022-11-24T03:51:56.008Z,46.19
2022-11-24T03:54:22.811Z,46.04
2022-11-24T03:56:49.849Z,46.18
2022-11-24T03:59:17.336Z,46.65
2022-11-24T04:01:44.206Z,46.63
2022-11-24T04:04:11.865Z,46.76
2022-11-24T04:06:38.980Z,46.47
2022-11-24T04:09:06.124Z,46.47
2022-11-24T04:11:36.070Z,46.84
2022-11-24T04:14:02.856Z,46.51
2022-11-24T04:16:29.703Z,46.93
2022-11-24T04:18:56.833Z,47.06
2022-11-24T04:21:23.588Z,47.08
2022-11-24T04:23:50.378Z,46.89
2022-11-24T04:26:17.812Z,47.05
2022-11-24T04:28:44.727Z,47.27
2022-11-24T04:31:11.581Z,47.71
2022-11-24T04:33:38.415Z,47.37
2022-11-24T04:36:05.473Z,47.61
2022-11-24T04:39:23.942Z,47.57
2022-11-24T04:41:19.126Z,47.53
2022-11-24T04:43:48.772Z,47.53
2022-11-24T04:46:15.708Z,47.52
2022-11-24T04:48:42.740Z,47.61
2022-11-24T04:51:10.921Z,47.78
2022-11-24T04:53:37.769Z,47.78
2022-11-24T04:56:06.100Z,47.88
2022-11-24T04:58:33.306Z,47.79
2022-11-24T05:01:00.113Z,47.95
2022-11-24T05:03:26.940Z,48.04
2022-11-24T05:05:53.712Z,47.79
2022-11-24T05:08:20.484Z,47.96
2022-11-24T05:10:47.309Z,47.96
2022-11-24T05:13:14.253Z,47.92
2022-11-24T05:15:41.924Z,47.71
2022-11-24T05:18:11.173Z,48.16
2022-11-24T05:20:38.333Z,48.23
2022-11-24T05:23:06.197Z,48.65
2022-11-24T05:25:33.488Z,48.48
2022-11-24T05:28:01.582Z,48.91
2022-11-24T05:30:28.856Z,48.48
2022-11-24T05:32:55.878Z,48.63
2022-11-24T05:35:22.994Z,48.59
2022-11-24T05:37:49.973Z,48.69
2022-11-24T05:40:17.089Z,49.32
2022-11-24T05:42:47.606Z,49.54
2022-11-24T05:45:16.766Z,49.12
2022-11-24T05:47:43.569Z,49.37
2022-11-24T05:50:11.865Z,49.33
2022-11-24T05:52:38.649Z,49.66
2022-11-24T05:55:06.160Z,49.35
2022-11-24T05:57:33.382Z,49.22
2022-11-24T06:00:00.500Z,49.38
2022-11-24T06:02:27.384Z,49.26
2022-11-24T06:04:54.596Z,49.67
2022-11-24T06:07:21.413Z,49.53
2022-11-24T06:09:48.350Z,49.21
2022-11-24T06:12:15.185Z,49.60
2022-11-24T06:14:42.040Z,49.08
2022-11-24T06:17:10.163Z,49.18
2022-11-24T06:19:41.742Z,49.48
2022-11-24T06:22:09.035Z,50.10
2022-11-24T06:24:36.070Z,49.41
2022-11-24T06:27:03.173Z,49.41
2022-11-24T06:29:29.979Z,49.55
2022-11-24T06:31:56.946Z,49.36
2022-11-24T06:34:23.789Z,49.43
2022-11-24T06:36:50.609Z,49.60
2022-11-24T06:39:17.410Z,49.54
2022-11-24T06:41:44.243Z,49.20
2022-11-24T06:44:11.150Z,48.81
2022-11-24T06:46:37.964Z,48.76
2022-11-24T06:49:04.781Z,48.85
2022-11-24T06:51:31.666Z,48.98
2022-11-24T06:53:58.588Z,48.84
2022-11-24T06:56:25.533Z,48.95
2022-11-24T06:58:53.243Z,48.80
2022-11-24T07:01:22.614Z,48.75
2022-11-24T07:03:50.161Z,48.07
2022-11-24T07:06:17.605Z,47.94
2022-11-24T07:08:44.845Z,48.23
2022-11-24T07:11:12.872Z,48.00
2022-11-24T07:13:39.681Z,48.21
2022-11-24T07:16:09.652Z,47.81
2022-11-24T07:18:36.497Z,47.81
2022-11-24T07:21:04.958Z,47.64
2022-11-24T07:23:31.760Z,47.28
2022-11-24T07:26:05.261Z,46.72
2022-11-24T07:28:33.840Z,46.86
2022-11-24T07:31:05.222Z,46.57
2022-11-24T07:33:32.080Z,46.44
2022-11-24T07:36:00.132Z,46.28
2022-11-24T07:38:26.946Z,46.38
2022-11-24T07:40:53.801Z,45.69
2022-11-24T07:43:20.796Z,44.56
2022-11-24T07:45:50.725Z,42.06
2022-11-24T07:48:17.625Z,42.34
2022-11-24T07:50:44.548Z,42.45
2022-11-24T07:53:11.910Z,42.53
2022-11-24T07:55:38.903Z,42.76
2022-11-24T07:58:05.869Z,42.90
2022-11-24T08:00:32.693Z,43.01
2022-11-24T08:02:59.564Z,42.89
2022-11-24T08:05:26.441Z,42.71
2022-11-24T08:07:53.349Z,42.72
2022-11-24T08:10:20.341Z,43.00
2022-11-24T08:12:47.245Z,42.69
2022-11-24T08:15:14.262Z,42.94
2022-11-24T08:17:41.223Z,43.37
2022-11-24T08:20:09.161Z,43.52
2022-11-24T08:22:36.079Z,43.05
2022-11-24T08:25:03.084Z,43.08
2022-11-24T08:27:30.457Z,43.65
2022-11-24T08:29:57.502Z,43.29
2022-11-24T08:32:24.455Z,43.23
2022-11-24T08:34:52.218Z,43.15
2022-11-24T08:37:25.099Z,42.86
2022-11-24T08:39:52.838Z,42.88
2022-11-24T08:42:19.921Z,42.91
2022-11-24T08:44:46.936Z,42.84
2022-11-24T08:47:13.809Z,43.09
2022-11-24T08:49:41.370Z,43.16
2022-11-24T08:52:08.241Z,43.02
2022-11-24T08:54:35.779Z,43.08
2022-11-24T08:57:02.904Z,42.74
2022-11-24T08:59:29.843Z,42.74
2022-11-24T09:01:56.910Z,42.79
2022-11-24T09:04:24.090Z,43.23
2022-11-24T09:06:51.042Z,42.77
2022-11-24T09:09:18.454Z,42.97
2022-11-24T09:11:45.652Z,43.17
2022-11-24T09:14:12.589Z,43.01
2022-11-24T09:16:39.657Z,43.01
2022-11-24T09:19:08.501Z,43.21
2022-11-24T09:21:38.144Z,42.85
2022-11-24T09:24:06.365Z,43.09
2022-11-24T09:26:34.972Z,43.12
2022-11-24T09:29:02.668Z,42.88
2022-11-24T09:31:31.328Z,43.16
2022-11-24T09:33:58.429Z,42.87
2022-11-24T09:36:25.732Z,43.03
2022-11-24T09:38:52.983Z,43.29
2022-11-24T09:41:20.386Z,43.22
2022-11-24T09:43:50.437Z,43.38
2022-11-24T09:46:27.637Z,43.15
2022-11-24T09:48:56.442Z,43.01
2022-11-24T09:51:26.386Z,43.32
2022-11-24T09:53:57.184Z,43.22
2022-11-24T09:56:26.964Z,43.28
2022-11-24T09:58:55.296Z,43.12
2022-11-24T10:01:25.394Z,43.12
2022-11-24T10:03:53.164Z,43.21
2022-11-24T10:06:22.986Z,43.17
2022-11-24T10:08:51.406Z,43.28
2022-11-24T10:11:27.001Z,43.67
2022-11-24T10:14:02.669Z,43.69
2022-11-24T10:16:30.184Z,43.71
2022-11-24T10:18:57.707Z,43.43
2022-11-24T10:21:25.054Z,43.60
2022-11-24T10:23:55.070Z,43.64
2022-11-24T10:26:25.445Z,43.65
2022-11-24T10:28:54.685Z,43.56
2022-11-24T10:31:24.976Z,44.13
2022-11-24T10:33:52.365Z,44.07
2022-11-24T10:36:22.382Z,43.84
2022-11-24T10:38:54.173Z,44.34
2022-11-24T10:41:24.664Z,44.25
2022-11-24T10:43:52.521Z,44.52
2022-11-24T10:46:24.418Z,44.39
2022-11-24T10:48:55.982Z,44.66
2022-11-24T10:51:26.266Z,44.91
2022-11-24T10:53:59.820Z,44.78
2022-11-24T10:56:27.033Z,44.54
2022-11-24T10:58:54.020Z,44.73
2022-11-24T11:01:26.698Z,44.72
2022-11-24T11:03:55.708Z,44.60
2022-11-24T11:06:23.122Z,44.93
2022-11-24T11:08:50.568Z,44.85
2022-11-24T11:11:17.930Z,44.72
2022-11-24T11:13:52.362Z,44.71
2022-11-24T11:16:22.422Z,44.81
2022-11-24T11:18:49.877Z,44.32
2022-11-24T11:21:20.375Z,44.61
2022-11-24T11:23:51.997Z,44.38
2022-11-24T11:26:21.374Z,44.57
2022-11-24T11:28:51.518Z,44.34
2022-11-24T11:31:22.418Z,44.13
2022-11-24T11:34:12.108Z,44.11
2022-11-24T11:36:41.893Z,44.45
2022-11-24T11:39:15.998Z,44.42
2022-11-24T11:41:45.746Z,44.32
2022-11-24T11:44:18.564Z,44.12
2022-11-24T11:46:51.744Z,44.32
2022-11-24T11:49:20.878Z,44.07
2022-11-24T11:51:59.929Z,44.47
2022-11-24T11:54:33.732Z,44.28
2022-11-24T11:57:09.333Z,44.24
2022-11-24T11:59:39.462Z,44.58
2022-11-24T12:02:07.976Z,44.28
2022-11-24T12:04:38.304Z,44.49
2022-11-24T12:07:08.361Z,44.30
2022-11-24T12:09:40.023Z,44.69
2022-11-24T12:12:10.008Z,44.30
2022-11-24T12:14:39.317Z,44.50
2022-11-24T12:17:07.447Z,44.56
2022-11-24T12:19:35.060Z,44.17
2022-11-24T12:22:02.582Z,44.43
2022-11-24T12:24:38.159Z,44.05
2022-11-24T12:27:06.703Z,44.54
2022-11-24T12:29:35.299Z,44.48
2022-11-24T12:32:02.944Z,43.99
2022-11-24T12:34:35.918Z,44.40
2022-11-24T12:37:04.177Z,44.34
2022-11-24T12:39:36.099Z,44.73
2022-11-24T12:42:05.120Z,44.29
2022-11-24T12:44:35.601Z,44.70
2022-11-24T12:47:05.644Z,44.77
2022-11-24T12:49:35.850Z,44.84
2022-11-24T12:52:09.501Z,44.81
2022-11-24T12:54:39.891Z,44.93
2022-11-24T12:57:09.804Z,44.82
2022-11-24T12:59:39.968Z,44.73
2022-11-24T13:02:10.407Z,44.71
2022-11-24T13:04:38.016Z,45.08
2022-11-24T13:07:10.570Z,44.72
2022-11-24T13:09:39.485Z,44.92
2022-11-24T13:12:13.912Z,44.91
2022-11-24T13:14:44.141Z,44.99
2022-11-24T13:17:29.745Z,45.02
2022-11-24T13:20:02.106Z,44.91
2022-11-24T13:22:29.660Z,45.12
2022-11-24T13:25:05.061Z,44.67
2022-11-24T13:27:40.450Z,45.16
2022-11-24T13:30:16.767Z,44.73
2022-11-24T13:32:44.262Z,44.99
2022-11-24T13:35:14.580Z,45.03
2022-11-24T13:37:41.985Z,44.75
2022-11-24T13:40:12.222Z,44.52
2022-11-24T13:42:44.435Z,44.48
2022-11-24T13:45:31.300Z,44.86
2022-11-24T13:47:58.483Z,44.70
2022-11-24T13:50:45.685Z,44.73
2022-11-24T13:53:16.468Z,44.62
2022-11-24T13:55:53.150Z,44.76
2022-11-24T13:58:23.280Z,44.86
2022-11-24T14:00:58.137Z,45.04
2022-11-24T14:03:25.992Z,44.92
2022-11-24T14:09:02.521Z,44.67
2022-11-24T14:11:29.927Z,44.95
2022-11-24T14:13:57.125Z,44.84
2022-11-24T14:16:24.723Z,44.79
2022-11-24T14:18:52.773Z,44.85
2022-11-24T14:21:21.278Z,45.25
2022-11-24T14:23:51.586Z,45.02
2022-11-24T14:26:21.993Z,45.13
2022-11-24T14:28:49.726Z,44.79
2022-11-24T14:31:21.671Z,45.04
2022-11-24T14:33:49.088Z,44.94
2022-11-24T14:36:18.706Z,44.97
2022-11-24T14:38:46.129Z,44.92
2022-11-24T14:41:17.102Z,45.11
2022-11-24T14:43:44.561Z,45.30
2022-11-24T14:46:18.589Z,44.99
2022-11-24T14:48:48.623Z,45.47
2022-11-24T14:51:18.509Z,45.36
2022-11-24T14:53:49.850Z,45.30
2022-11-24T14:56:20.290Z,45.14
2022-11-24T14:58:47.629Z,45.20
2022-11-24T15:01:18.432Z,45.16
2022-11-24T15:03:45.970Z,45.65
2022-11-24T15:06:16.604Z,45.74
2022-11-24T15:08:46.942Z,45.40
2022-11-24T15:11:14.469Z,45.79
2022-11-24T15:13:52.248Z,45.42
2022-11-24T15:16:21.542Z,45.80
2022-11-24T15:18:50.368Z,45.77
2022-11-24T15:21:31.229Z,46.17
2022-11-24T15:24:01.634Z,46.18
2022-11-24T15:26:35.498Z,46.11
2022-11-24T15:29:04.290Z,46.60
2022-11-24T15:31:32.864Z,46.87
2022-11-24T15:34:00.144Z,46.79
2022-11-24T15:36:27.756Z,46.50
2022-11-24T15:38:55.011Z,46.41
2022-11-24T15:41:23.015Z,46.60
2022-11-24T15:43:50.454Z,46.51
2022-11-24T15:46:18.160Z,46.38
2022-11-24T15:48:48.364Z,46.37
2022-11-24T15:51:16.565Z,46.32
2022-11-24T15:53:45.809Z,46.56
2022-11-24T15:56:16.304Z,46.10
2022-11-24T15:58:43.663Z,46.18
2022-11-24T16:01:11.556Z,46.17
2022-11-24T16:03:46.804Z,46.24
2022-11-24T16:06:22.193Z,46.23
2022-11-24T16:08:51.629Z,46.65
2022-11-24T16:11:19.628Z,46.57
2022-11-24T16:13:52.284Z,46.37
2022-11-24T16:16:22.005Z,46.25
2022-11-24T16:18:50.149Z,46.45
2022-11-24T16:21:17.961Z,46.31
2022-11-24T16:23:46.569Z,46.09
2022-11-24T16:26:16.213Z,46.31
2022-11-24T16:28:46.081Z,46.22
2022-11-24T16:31:16.669Z,46.53
2022-11-24T16:33:45.649Z,46.54
2022-11-24T16:36:14.391Z,46.42
2022-11-24T16:38:42.858Z,46.74
2022-11-24T16:41:11.518Z,46.46
2022-11-24T16:43:40.146Z,46.59
2022-11-24T16:46:17.833Z,46.79
2022-11-24T16:48:47.259Z,46.63
2022-11-24T16:51:15.283Z,46.91
2022-11-24T16:53:42.969Z,47.01
2022-11-24T16:56:11.841Z,47.00
2022-11-24T16:58:40.074Z,46.66
2022-11-24T17:01:09.304Z,46.77
2022-11-24T17:03:38.621Z,46.77
2022-11-24T17:06:07.679Z,46.81
2022-11-24T17:08:38.311Z,46.74
2022-11-24T17:11:07.074Z,46.84
2022-11-24T17:13:35.083Z,46.67
2022-11-24T17:16:24.431Z,46.88
2022-11-24T17:18:52.819Z,46.48
2022-11-24T17:21:23.139Z,46.48
2022-11-24T17:23:54.196Z,46.36
2022-11-24T17:26:23.300Z,46.31
2022-11-24T17:28:51.544Z,45.90
2022-11-24T17:31:23.389Z,46.17
2022-11-24T17:33:52.635Z,45.85
2022-11-24T17:36:20.906Z,45.96
2022-11-24T17:38:50.619Z,45.74
2022-11-24T17:41:20.066Z,45.70
2022-11-24T17:43:51.109Z,45.51
2022-11-24T17:46:33.903Z,45.52
2022-11-24T17:49:01.623Z,45.61
2022-11-24T17:51:29.921Z,45.44
2022-11-24T17:54:01.219Z,45.55
2022-11-24T17:56:34.591Z,45.35
2022-11-24T17:59:05.928Z,45.59
2022-11-24T18:01:35.661Z,45.41
2022-11-24T18:04:03.834Z,45.41
2022-11-24T18:06:31.798Z,45.16
2022-11-24T18:09:03.054Z,45.14
2022-11-24T18:11:32.287Z,45.54
2022-11-24T18:14:02.394Z,45.08
2022-11-24T18:16:32.329Z,45.33
2022-11-24T18:19:11.572Z,45.14
2022-11-24T18:21:40.730Z,45.12
2022-11-24T18:24:09.600Z,45.63
2022-11-24T18:26:37.504Z,45.66
2022-11-24T18:29:05.030Z,45.67
2022-11-24T18:31:34.745Z,45.31
2022-11-24T18:34:02.871Z,45.24
2022-11-24T18:36:52.456Z,45.39
2022-11-24T18:39:20.176Z,45.64
2022-11-24T18:41:47.794Z,45.64
2022-11-24T18:44:15.366Z,45.60
2022-11-24T18:46:42.864Z,45.21
2022-11-24T18:49:10.538Z,45.32
2022-11-24T18:51:38.032Z,45.48
2022-11-24T18:54:05.914Z,45.10
2022-11-24T18:56:33.346Z,45.07
2022-11-24T18:59:00.785Z,45.10
2022-11-24T19:01:29.567Z,45.30
2022-11-24T19:03:58.296Z,45.26
2022-11-24T19:06:29.420Z,45.11
2022-11-24T19:08:56.708Z,45.19
2022-11-24T19:11:26.120Z,45.20
2022-11-24T19:13:53.590Z,45.16
2022-11-24T19:16:22.821Z,45.02
2022-11-24T19:18:54.134Z,45.17
2022-11-24T19:21:22.105Z,44.96
2022-11-24T19:23:49.914Z,45.16
2022-11-24T19:26:17.624Z,44.97
2022-11-24T19:28:45.418Z,44.90
2022-11-24T19:31:14.033Z,45.09
2022-11-24T19:33:42.064Z,45.24
2022-11-24T19:36:10.128Z,44.99
2022-11-24T19:38:37.480Z,45.03
2022-11-24T19:41:06.540Z,45.36
2022-11-24T19:43:34.618Z,45.30
2022-11-24T19:46:02.523Z,45.23
2022-11-24T19:48:32.622Z,45.03
2022-11-24T19:51:03.160Z,45.10
2022-11-24T19:53:31.179Z,45.51
2022-11-24T19:56:02.427Z,45.50
2022-11-24T19:58:30.225Z,45.16
2022-11-24T20:00:57.864Z,45.22
2022-11-24T20:03:25.183Z,45.30
2022-11-24T20:05:55.644Z,45.24
2022-11-24T20:08:22.856Z,45.18
2022-11-24T20:10:50.094Z,45.16
2022-11-24T20:13:17.432Z,45.30
2022-11-24T20:15:44.725Z,45.38
2022-11-24T20:18:11.878Z,45.16
2022-11-24T20:20:39.352Z,45.12
2022-11-24T20:23:06.780Z,45.12
2022-11-24T20:25:37.057Z,45.20
2022-11-24T20:28:04.857Z,45.33
2022-11-24T20:30:33.118Z,45.44
2022-11-24T20:33:00.719Z,45.49
2022-11-24T20:35:28.016Z,45.11
2022-11-24T20:37:55.600Z,45.42
2022-11-24T20:40:22.765Z,45.50
2022-11-24T20:42:50.269Z,45.50
2022-11-24T20:45:17.629Z,45.38
2022-11-24T20:47:44.875Z,45.44
2022-11-24T20:50:12.213Z,45.61
2022-11-24T20:52:39.620Z,45.33
2022-11-24T20:55:07.691Z,45.55
2022-11-24T20:57:34.819Z,45.39
2022-11-24T21:00:01.965Z,45.67
2022-11-24T21:02:29.160Z,45.79
2022-11-24T21:04:56.471Z,45.50
2022-11-24T21:07:23.709Z,45.86
2022-11-24T21:09:50.920Z,46.11
2022-11-24T21:12:18.373Z,45.91
2022-11-24T21:14:45.578Z,45.79
2022-11-24T21:17:14.616Z,46.02
2022-11-24T21:19:41.812Z,46.45
2022-11-24T21:22:08.900Z,46.61
2022-11-24T21:24:36.084Z,46.19
2022-11-24T21:27:03.298Z,46.51
2022-11-24T21:29:32.133Z,46.52
2022-11-24T21:31:59.288Z,46.27
2022-11-24T21:34:26.532Z,46.19
2022-11-24T21:36:54.018Z,46.13
2022-11-24T21:39:21.118Z,46.26
2022-11-24T21:41:48.553Z,46.50
2022-11-24T21:44:15.854Z,46.44
2022-11-24T21:46:49.644Z,46.25
2022-11-24T21:49:21.719Z,46.20
2022-11-24T21:51:56.161Z,45.93
2022-11-24T21:54:23.510Z,45.82
2022-11-24T21:56:50.599Z,45.71
2022-11-24T21:59:17.734Z,45.78
2022-11-24T22:02:22.092Z,45.69
2022-11-24T22:04:49.120Z,45.89
2022-11-24T22:07:16.385Z,45.38
2022-11-24T22:09:43.939Z,45.60
2022-11-24T22:12:11.057Z,45.40
2022-11-24T22:14:40.737Z,45.26
2022-11-24T22:17:08.101Z,45.05
2022-11-24T22:19:35.319Z,45.36
2022-11-24T22:22:02.502Z,44.86
2022-11-24T22:24:29.653Z,45.10
2022-11-24T22:26:56.950Z,44.97
2022-11-24T22:29:24.084Z,45.08
2022-11-24T22:31:51.399Z,44.73
2022-11-24T22:34:18.740Z,44.98
2022-11-24T22:36:45.801Z,44.89
2022-11-24T22:39:13.260Z,44.46
2022-11-24T22:41:40.314Z,44.48
2022-11-24T22:44:07.334Z,44.71
2022-11-24T22:46:34.392Z,44.38
2022-11-24T22:49:02.225Z,44.28
2022-11-24T22:51:32.879Z,44.26
2022-11-24T22:54:01.425Z,44.55
2022-11-24T22:56:28.872Z,44.16
2022-11-24T22:58:56.268Z,44.32
2022-11-24T23:01:25.066Z,44.27
2022-11-24T23:03:54.832Z,44.36
2022-11-24T23:06:23.961Z,44.48
2022-11-24T23:08:51.649Z,44.57
2022-11-24T23:11:20.203Z,44.68
2022-11-24T23:13:47.373Z,44.53
2022-11-24T23:16:15.898Z,44.55
2022-11-24T23:18:43.297Z,44.29
2022-11-24T23:21:13.353Z,44.21
2022-11-24T23:23:40.613Z,44.06
2022-11-24T23:26:09.377Z,44.44
2022-11-24T23:28:36.548Z,44.30
2022-11-24T23:31:05.230Z,45.02
2022-11-24T23:33:32.806Z,45.25
2022-11-24T23:36:01.560Z,45.47
2022-11-24T23:38:30.458Z,45.36
2022-11-24T23:40:57.880Z,45.21
2022-11-24T23:43:24.940Z,45.01
2022-11-24T23:45:52.096Z,45.56
2022-11-24T23:48:19.201Z,45.52
2022-11-24T23:50:46.317Z,45.18
2022-11-24T23:53:13.244Z,45.17
2022-11-24T23:55:40.276Z,45.07
2022-11-24T23:58:07.614Z,45.45
